Addison, Alabama
Current Conditions -  °F | °C
As of 5:15 AM on Sunday 21 Dec 2014 (Local Time) from KCMD Reporting Station
Scattered Clouds Scattered Clouds  
Wind Chill: 28°   Ceiling: Unl
Heat Index: 28°   Visibility: 10mi
Dew Point: 27°   Wind: 0mph
Humidity: 95%   Direction: NA
Pressure: 30.19"   Gusts: NA
Location:  34.2°N, 87.18°W
Report Text: KCMD 211115Z AUTO 00000KT 10SM SCT028 M02/M03 A3019 RMK AO2 T10201027
Loading
Personal Weather Stations






























Interactive Weather Map New forecast layout! Learn more

10-Day Weather Forecast

Advertisements
Track Severe Weather on mobile